createdAt,value
2023-01-26T00:02:10.912Z,24.50
2023-01-26T00:07:13.811Z,22.20
2023-01-26T00:12:17.054Z,21.50
2023-01-26T00:17:26.421Z,23.97
2023-01-26T00:22:29.635Z,24.63
2023-01-26T00:27:35.574Z,22.77
2023-01-26T00:32:38.947Z,22.57
2023-01-26T00:37:42.588Z,22.37
2023-01-26T00:42:45.789Z,22.27
2023-01-26T00:47:49.088Z,23.43
2023-01-26T00:52:53.995Z,25.43
2023-01-26T00:58:05.430Z,22.80
2023-01-26T01:03:08.333Z,22.17
2023-01-26T01:08:11.468Z,24.67
2023-01-26T01:13:14.335Z,21.67
2023-01-26T01:18:17.572Z,22.67
2023-01-26T01:23:22.191Z,21.47
2023-01-26T01:28:25.259Z,20.60
2023-01-26T01:33:28.527Z,21.57
2023-01-26T01:38:31.763Z,20.73
2023-01-26T01:43:35.503Z,19.30
2023-01-26T01:48:50.002Z,19.20
2023-01-26T01:53:53.572Z,20.83
2023-01-26T01:58:58.681Z,19.43
2023-01-26T02:04:05.068Z,20.43
2023-01-26T02:09:09.269Z,18.47
2023-01-26T02:14:14.101Z,18.43
2023-01-26T02:19:30.947Z,19.50
2023-01-26T02:24:37.715Z,20.37
2023-01-26T02:29:42.294Z,20.37
2023-01-26T02:34:45.419Z,20.10
2023-01-26T02:40:11.229Z,21.27
2023-01-26T02:45:16.194Z,20.07
2023-01-26T02:50:20.797Z,20.53
2023-01-26T02:55:29.005Z,20.47
2023-01-26T03:00:37.708Z,19.50
2023-01-26T03:05:41.151Z,21.53
2023-01-26T03:10:44.688Z,21.53
2023-01-26T03:15:54.948Z,20.53
2023-01-26T03:21:22.781Z,18.47
2023-01-26T03:26:45.480Z,18.40
2023-01-26T03:31:48.771Z,20.47
2023-01-26T03:36:52.160Z,20.23
2023-01-26T03:42:15.441Z,19.00
2023-01-26T03:47:37.484Z,20.73
2023-01-26T03:52:59.932Z,18.67
2023-01-26T03:58:03.191Z,20.40
2023-01-26T04:03:25.250Z,19.73
2023-01-26T04:08:28.408Z,19.13
2023-01-26T04:13:52.585Z,18.27
2023-01-26T04:19:19.773Z,17.30
2023-01-26T04:24:23.252Z,18.30
2023-01-26T04:29:31.231Z,17.63
2023-01-26T04:34:34.352Z,18.20
2023-01-26T04:39:41.074Z,16.97
2023-01-26T04:44:44.248Z,16.17
2023-01-26T04:49:47.815Z,16.27
2023-01-26T04:54:55.073Z,17.67
2023-01-26T04:59:58.272Z,18.00
2023-01-26T05:05:01.267Z,18.00
2023-01-26T05:10:04.941Z,18.97
2023-01-26T05:15:26.320Z,18.83
2023-01-26T05:20:47.978Z,19.27
2023-01-26T05:25:53.461Z,19.00
2023-01-26T05:30:59.644Z,19.57
2023-01-26T05:36:06.929Z,18.50
2023-01-26T05:41:10.756Z,19.13
2023-01-26T05:46:28.684Z,24.30
2023-01-26T05:51:31.850Z,22.33
2023-01-26T05:56:35.362Z,20.63
2023-01-26T06:01:40.859Z,20.07
2023-01-26T06:06:45.120Z,26.00
2023-01-26T06:12:17.598Z,26.90
2023-01-26T06:17:32.903Z,21.73
2023-01-26T06:22:38.623Z,21.90
2023-01-26T06:27:42.614Z,21.80
2023-01-26T06:33:00.487Z,21.70
2023-01-26T06:38:04.693Z,22.43
2023-01-26T06:43:08.319Z,23.07
2023-01-26T06:48:12.164Z,21.20
2023-01-26T06:53:31.124Z,25.07
2023-01-26T06:59:06.596Z,23.97
2023-01-26T07:04:35.994Z,19.30
2023-01-26T07:09:39.143Z,21.53
2023-01-26T07:14:42.099Z,19.80
2023-01-26T07:19:45.494Z,20.00
2023-01-26T07:24:48.383Z,19.10
2023-01-26T07:29:51.602Z,19.97
2023-01-26T07:34:54.459Z,18.57
2023-01-26T07:39:57.300Z,18.10
2023-01-26T07:45:00.150Z,21.10
2023-01-26T07:50:03.245Z,20.63
2023-01-26T07:55:06.734Z,18.47
2023-01-26T08:00:10.736Z,20.07
2023-01-26T08:05:17.104Z,21.80
2023-01-26T08:10:28.378Z,81.03
2023-01-26T08:15:31.330Z,26.30
2023-01-26T08:20:34.435Z,22.70
2023-01-26T08:25:37.703Z,22.33
2023-01-26T08:30:40.949Z,22.23
2023-01-26T08:35:44.189Z,40.20
2023-01-26T08:40:52.032Z,31.23
2023-01-26T08:45:55.765Z,22.30
2023-01-26T08:51:00.718Z,21.60
2023-01-26T08:56:08.334Z,20.27
2023-01-26T09:01:13.604Z,20.93
2023-01-26T09:06:16.722Z,21.60
2023-01-26T09:11:19.682Z,19.93
2023-01-26T09:16:23.669Z,19.60
2023-01-26T09:21:26.648Z,19.70
2023-01-26T09:26:30.844Z,21.50
2023-01-26T09:31:33.972Z,21.33
2023-01-26T09:36:37.352Z,23.13
2023-01-26T09:42:05.465Z,23.47
2023-01-26T09:47:16.331Z,21.83
2023-01-26T09:52:28.572Z,22.60
2023-01-26T09:57:40.556Z,23.30
2023-01-26T10:03:33.603Z,24.47
2023-01-26T10:08:40.700Z,26.67
2023-01-26T10:13:51.144Z,24.20
2023-01-26T10:19:04.462Z,24.63
2023-01-26T10:24:10.419Z,25.27
2023-01-26T10:29:22.053Z,26.10
2023-01-26T10:34:26.648Z,25.27
2023-01-26T10:39:29.742Z,22.63
2023-01-26T10:44:34.807Z,25.00
2023-01-26T10:49:37.957Z,23.50
2023-01-26T10:54:44.090Z,26.80
2023-01-26T10:59:56.556Z,25.27
2023-01-26T11:05:16.454Z,24.97
2023-01-26T11:10:24.147Z,24.37
2023-01-26T11:15:28.126Z,24.63
2023-01-26T11:20:53.133Z,25.33
2023-01-26T11:26:18.616Z,24.03
2023-01-26T11:31:52.177Z,26.13
2023-01-26T11:37:26.055Z,25.03
2023-01-26T11:42:41.287Z,25.77
2023-01-26T11:47:50.249Z,26.77
2023-01-26T11:53:22.788Z,27.27
2023-01-26T11:58:55.894Z,27.50
2023-01-26T12:03:59.214Z,24.93
2023-01-26T12:09:18.927Z,25.37
2023-01-26T12:14:37.160Z,23.87
2023-01-26T12:20:04.638Z,24.30
2023-01-26T12:25:19.885Z,26.17
2023-01-26T12:30:31.467Z,26.83
2023-01-26T12:35:44.590Z,28.87
2023-01-26T12:40:53.890Z,30.07
2023-01-26T12:46:00.396Z,26.93
2023-01-26T12:51:09.747Z,28.37
2023-01-26T12:56:22.441Z,26.50
2023-01-26T13:01:29.277Z,28.63
2023-01-26T13:06:32.377Z,27.33
2023-01-26T13:11:51.567Z,30.03
2023-01-26T13:16:55.126Z,29.60
2023-01-26T13:21:58.332Z,28.27
2023-01-26T13:27:01.298Z,27.57
2023-01-26T13:32:10.480Z,29.73
2023-01-26T13:37:38.595Z,31.00
2023-01-26T13:42:52.777Z,30.60
2023-01-26T13:47:58.336Z,26.90
2023-01-26T13:53:01.453Z,29.67
2023-01-26T13:58:18.796Z,28.77
2023-01-26T14:03:22.793Z,31.20
2023-01-26T14:08:26.209Z,32.77
2023-01-26T14:13:33.944Z,29.83
2023-01-26T14:18:36.935Z,31.43
2023-01-26T14:23:40.247Z,29.63
2023-01-26T14:28:44.847Z,31.13
2023-01-26T14:33:49.519Z,34.00
2023-01-26T14:38:54.466Z,32.43
2023-01-26T14:44:00.132Z,35.27
2023-01-26T14:49:25.302Z,34.17
2023-01-26T14:54:30.749Z,35.27
2023-01-26T14:59:35.232Z,46.90
2023-01-26T15:04:40.447Z,30.63
2023-01-26T15:09:52.657Z,41.20
2023-01-26T15:15:00.207Z,59.53
2023-01-26T15:20:04.780Z,38.57
2023-01-26T15:25:22.580Z,33.47
2023-01-26T15:30:34.166Z,46.20
2023-01-26T15:35:36.960Z,35.30
2023-01-26T15:40:40.273Z,43.00
2023-01-26T15:45:51.398Z,71.20
2023-01-26T15:50:54.490Z,44.43
2023-01-26T15:55:58.855Z,43.43
2023-01-26T16:01:02.132Z,41.23
2023-01-26T16:06:05.424Z,34.10
2023-01-26T16:11:12.218Z,31.80
2023-01-26T16:16:16.866Z,34.87
2023-01-26T16:21:22.701Z,37.60
2023-01-26T16:26:26.971Z,40.60
2023-01-26T16:31:32.070Z,32.97
2023-01-26T16:36:34.870Z,30.13
2023-01-26T16:41:37.884Z,51.93
2023-01-26T16:46:40.936Z,36.77
2023-01-26T16:51:44.336Z,30.37
2023-01-26T16:56:47.710Z,44.10
2023-01-26T17:01:50.919Z,35.73
2023-01-26T17:06:54.275Z,32.83
2023-01-26T17:11:57.575Z,32.57
2023-01-26T17:17:01.254Z,39.10
2023-01-26T17:22:04.564Z,36.67
2023-01-26T17:27:07.540Z,35.97
2023-01-26T17:32:11.310Z,37.57
2023-01-26T17:37:14.276Z,32.57
2023-01-26T17:42:17.192Z,32.80
2023-01-26T17:47:20.459Z,36.30
2023-01-26T17:52:23.728Z,39.70
2023-01-26T17:57:26.771Z,39.60
2023-01-26T18:02:30.172Z,37.67
2023-01-26T18:07:33.383Z,39.30
2023-01-26T18:12:37.883Z,35.63
2023-01-26T18:17:40.693Z,53.57
2023-01-26T18:22:44.009Z,32.20
2023-01-26T18:27:46.918Z,39.50
2023-01-26T18:32:49.819Z,57.07
2023-01-26T18:37:52.741Z,60.27
2023-01-26T18:42:56.907Z,77.57
2023-01-26T18:47:59.998Z,44.30
2023-01-26T18:53:04.182Z,59.70
2023-01-26T18:58:07.517Z,31.33
2023-01-26T19:03:10.713Z,39.57
2023-01-26T19:08:14.709Z,32.80
2023-01-26T19:13:17.731Z,34.07
2023-01-26T19:18:20.658Z,27.33
2023-01-26T19:23:26.785Z,29.93
2023-01-26T19:28:29.790Z,26.57
2023-01-26T19:33:32.997Z,32.10
2023-01-26T19:38:39.402Z,71.77
2023-01-26T19:43:42.831Z,28.83
2023-01-26T19:48:46.568Z,28.27
2023-01-26T19:53:52.027Z,32.80
2023-01-26T19:59:01.079Z,24.53
2023-01-26T20:04:06.909Z,25.00
2023-01-26T20:09:10.296Z,29.33
2023-01-26T20:14:13.564Z,27.20
2023-01-26T20:19:16.429Z,23.87
2023-01-26T20:24:20.142Z,25.00
2023-01-26T20:29:23.315Z,25.07
2023-01-26T20:34:27.227Z,26.23
2023-01-26T20:39:30.052Z,28.13
2023-01-26T20:44:33.124Z,24.53
2023-01-26T20:49:37.247Z,26.40
2023-01-26T20:54:40.066Z,25.00
2023-01-26T20:59:42.931Z,24.23
2023-01-26T21:04:45.995Z,21.93
2023-01-26T21:09:49.126Z,27.17
2023-01-26T21:14:52.244Z,27.33
2023-01-26T21:19:55.259Z,24.27
2023-01-26T21:24:58.072Z,23.80
2023-01-26T21:30:01.218Z,23.03
2023-01-26T21:35:04.451Z,24.60
2023-01-26T21:40:09.315Z,24.83
2023-01-26T21:45:30.985Z,24.97
2023-01-26T21:50:54.532Z,22.00
2023-01-26T21:55:58.872Z,24.93
2023-01-26T22:01:06.774Z,21.77
2023-01-26T22:06:09.984Z,22.40
2023-01-26T22:11:16.529Z,24.13
2023-01-26T22:16:21.941Z,22.33
2023-01-26T22:21:26.449Z,21.67
2023-01-26T22:26:29.497Z,20.23
2023-01-26T22:31:32.729Z,18.57
2023-01-26T22:36:35.867Z,20.93
2023-01-26T22:41:39.167Z,27.77
2023-01-26T22:46:42.247Z,28.43
2023-01-26T22:51:45.130Z,24.87
2023-01-26T22:56:48.146Z,21.40
2023-01-26T23:01:51.545Z,21.57
2023-01-26T23:06:54.479Z,21.20
2023-01-26T23:11:57.441Z,18.30
2023-01-26T23:17:00.549Z,16.97
2023-01-26T23:22:03.499Z,16.00
2023-01-26T23:27:06.351Z,16.67
2023-01-26T23:32:09.286Z,16.87
2023-01-26T23:37:12.202Z,19.10
2023-01-26T23:42:15.950Z,17.87
2023-01-26T23:47:19.394Z,19.00
2023-01-26T23:52:22.419Z,16.13
2023-01-26T23:57:25.735Z,16.37
